createdAt,value
2023-04-28T00:01:39.132Z,7.49
2023-04-28T00:04:08.362Z,7.47
2023-04-28T00:06:35.658Z,7.54
2023-04-28T00:09:07.298Z,7.46
2023-04-28T00:11:47.836Z,7.46
2023-04-28T00:14:20.126Z,7.48
2023-04-28T00:17:40.723Z,7.50
2023-04-28T00:20:15.320Z,7.49
2023-04-28T00:22:44.191Z,7.42
2023-04-28T00:25:18.554Z,7.39
2023-04-28T00:27:45.844Z,7.44
2023-04-28T00:30:22.569Z,7.44
2023-04-28T00:32:51.021Z,7.41
2023-04-28T00:35:18.198Z,7.38
2023-04-28T00:37:57.909Z,7.44
2023-04-28T00:40:49.424Z,7.51
2023-04-28T00:43:56.732Z,7.44
2023-04-28T00:46:42.553Z,7.44
2023-04-28T00:49:23.528Z,7.33
2023-04-28T00:51:51.276Z,7.39
2023-04-28T00:54:44.781Z,7.34
2023-04-28T00:57:12.795Z,7.24
2023-04-28T00:59:49.218Z,7.24
2023-04-28T01:02:27.163Z,7.24
2023-04-28T01:04:57.234Z,7.24
2023-04-28T01:07:27.959Z,7.27
2023-04-28T01:09:56.192Z,7.21
2023-04-28T01:12:32.100Z,7.19
2023-04-28T01:15:00.330Z,7.22
2023-04-28T01:17:34.698Z,7.21
2023-04-28T01:20:08.850Z,7.19
2023-04-28T01:25:50.603Z,7.20
2023-04-28T01:28:21.031Z,7.18
2023-04-28T01:30:49.055Z,7.24
2023-04-28T01:33:26.233Z,7.17
2023-04-28T01:36:51.488Z,7.26
2023-04-28T01:39:20.938Z,7.28
2023-04-28T01:41:53.160Z,7.17
2023-04-28T01:44:25.070Z,7.04
2023-04-28T01:47:00.398Z,7.04
2023-04-28T01:49:42.956Z,7.06
2023-04-28T01:52:22.431Z,7.07
2023-04-28T01:58:01.623Z,7.06
2023-04-28T02:00:33.045Z,7.03
2023-04-28T02:03:26.105Z,6.98
2023-04-28T02:06:33.345Z,7.05
2023-04-28T02:15:26.159Z,6.98
2023-04-28T02:21:16.088Z,7.07
2023-04-28T02:23:44.310Z,7.04
2023-04-28T02:29:45.526Z,7.09
2023-04-28T02:36:30.526Z,7.04
2023-04-28T02:39:03.891Z,7.03
2023-04-28T02:41:43.619Z,7.10
2023-04-28T02:44:40.622Z,7.16
2023-04-28T02:47:45.275Z,7.08
2023-04-28T02:50:20.947Z,7.03
2023-04-28T02:52:49.183Z,7.05
2023-04-28T02:55:34.151Z,7.02
2023-04-28T02:58:10.788Z,6.99
2023-04-28T03:00:37.489Z,7.02
2023-04-28T03:03:04.498Z,7.05
2023-04-28T03:05:31.447Z,7.01
2023-04-28T03:07:58.118Z,6.91
2023-04-28T03:10:25.094Z,6.92
2023-04-28T03:13:02.134Z,6.91
2023-04-28T03:15:36.801Z,6.94
2023-04-28T03:18:07.220Z,6.94
2023-04-28T03:20:37.710Z,6.87
2023-04-28T03:23:04.627Z,6.79
2023-04-28T03:25:31.859Z,6.83
2023-04-28T03:27:58.543Z,6.83
2023-04-28T03:30:25.341Z,6.75
2023-04-28T03:32:52.346Z,6.73
2023-04-28T03:35:19.266Z,6.79
2023-04-28T03:37:45.984Z,6.86
2023-04-28T03:40:16.745Z,6.93
2023-04-28T03:42:43.968Z,6.92
2023-04-28T03:45:12.104Z,6.95
2023-04-28T03:47:43.763Z,6.94
2023-04-28T03:50:14.315Z,6.92
2023-04-28T03:52:46.249Z,6.93
2023-04-28T03:55:16.765Z,6.95
2023-04-28T03:57:48.021Z,7.00
2023-04-28T04:00:16.571Z,7.05
2023-04-28T04:02:51.386Z,7.17
2023-04-28T04:05:19.265Z,7.07
2023-04-28T04:07:47.083Z,7.15
2023-04-28T04:10:28.274Z,7.13
2023-04-28T04:12:57.319Z,7.14
2023-04-28T04:15:24.409Z,7.15
2023-04-28T04:18:04.339Z,7.26
2023-04-28T04:20:32.905Z,7.24
2023-04-28T04:23:00.205Z,7.27
2023-04-28T04:25:30.532Z,7.28
2023-04-28T04:28:00.623Z,7.27
2023-04-28T04:30:31.856Z,7.32
2023-04-28T04:33:04.626Z,7.33
2023-04-28T04:35:34.645Z,7.40
2023-04-28T04:38:13.338Z,7.49
2023-04-28T04:40:41.599Z,7.56
2023-04-28T04:43:08.980Z,7.58
2023-04-28T04:45:36.808Z,7.63
2023-04-28T04:48:04.937Z,7.65
2023-04-28T04:50:32.779Z,7.58
2023-04-28T04:53:07.185Z,7.54
2023-04-28T04:55:47.360Z,7.58
2023-04-28T04:58:17.401Z,7.69
2023-04-28T05:01:08.851Z,7.85
2023-04-28T05:03:44.000Z,7.92
2023-04-28T05:06:11.968Z,8.01
2023-04-28T05:08:42.865Z,8.01
2023-04-28T05:11:20.473Z,7.95
2023-04-28T05:13:48.463Z,7.89
2023-04-28T05:16:19.170Z,7.92
2023-04-28T05:18:47.121Z,7.89
2023-04-28T05:21:15.676Z,7.97
2023-04-28T05:23:50.516Z,8.09
2023-04-28T05:26:17.757Z,8.06
2023-04-28T05:28:46.764Z,8.05
2023-04-28T05:31:13.919Z,7.98
2023-04-28T05:33:41.341Z,7.99
2023-04-28T05:36:12.149Z,8.01
2023-04-28T05:38:39.551Z,8.05
2023-04-28T05:41:12.262Z,8.00
2023-04-28T05:43:40.960Z,7.97
2023-04-28T05:46:18.126Z,7.99
2023-04-28T05:48:59.567Z,7.98
2023-04-28T05:51:27.898Z,7.93
2023-04-28T05:53:58.373Z,7.96
2023-04-28T05:56:25.692Z,8.01
2023-04-28T05:58:56.199Z,8.08
2023-04-28T06:01:24.621Z,8.14
2023-04-28T06:03:55.215Z,8.17
2023-04-28T06:06:22.317Z,8.13
2023-04-28T06:08:49.399Z,8.09
2023-04-28T06:11:17.424Z,8.15
2023-04-28T06:13:45.115Z,8.19
2023-04-28T06:16:12.409Z,8.17
2023-04-28T06:18:42.280Z,8.08
2023-04-28T06:21:09.413Z,8.05
2023-04-28T06:23:38.950Z,8.12
2023-04-28T06:26:06.192Z,8.08
2023-04-28T06:28:33.097Z,8.06
2023-04-28T06:31:01.938Z,8.12
2023-04-28T06:33:28.951Z,8.25
2023-04-28T06:35:56.734Z,8.36
2023-04-28T06:38:24.255Z,8.34
2023-04-28T06:40:54.616Z,8.43
2023-04-28T06:43:23.652Z,8.36
2023-04-28T06:46:01.563Z,8.44
2023-04-28T06:48:40.833Z,8.49
2023-04-28T06:51:08.052Z,8.30
2023-04-28T06:53:44.160Z,8.19
2023-04-28T06:56:16.233Z,8.26
2023-04-28T06:58:43.839Z,8.44
2023-04-28T07:01:14.933Z,8.54
2023-04-28T07:03:51.334Z,8.63
2023-04-28T07:06:21.669Z,8.58
2023-04-28T07:08:53.498Z,8.51
2023-04-28T07:11:23.720Z,8.50
2023-04-28T07:13:51.893Z,8.64
2023-04-28T07:16:22.558Z,8.75
2023-04-28T07:18:50.495Z,8.90
2023-04-28T07:21:20.911Z,9.11
2023-04-28T07:23:49.159Z,9.28
2023-04-28T07:26:19.028Z,9.40
2023-04-28T07:28:47.714Z,9.53
2023-04-28T07:31:14.795Z,9.65
2023-04-28T07:33:42.360Z,9.80
2023-04-28T07:36:09.591Z,9.88
2023-04-28T07:38:38.333Z,9.94
2023-04-28T07:41:11.190Z,9.98
2023-04-28T07:43:39.172Z,10.06
2023-04-28T07:46:08.527Z,10.16
2023-04-28T07:48:36.787Z,10.21
2023-04-28T07:51:05.441Z,10.46
2023-04-28T07:53:32.539Z,10.52
2023-04-28T07:56:05.923Z,10.73
2023-04-28T07:58:34.023Z,11.04
2023-04-28T08:01:03.129Z,11.35
2023-04-28T08:03:32.824Z,11.48
2023-04-28T08:06:04.939Z,11.54
2023-04-28T08:08:32.751Z,11.65
2023-04-28T08:11:33.556Z,11.59
2023-04-28T08:14:04.066Z,11.67
2023-04-28T08:16:31.988Z,11.66
2023-04-28T08:19:00.106Z,11.60
2023-04-28T08:21:29.161Z,11.64
2023-04-28T08:23:56.685Z,11.82
2023-04-28T08:26:26.926Z,11.70
2023-04-28T08:29:00.671Z,11.75
2023-04-28T08:34:21.279Z,11.62
2023-04-28T08:36:49.446Z,11.85
2023-04-28T08:39:21.003Z,12.01
2023-04-28T08:41:48.020Z,12.15
2023-04-28T08:44:15.170Z,12.21
2023-04-28T08:46:46.023Z,12.38
2023-04-28T08:49:41.312Z,12.62
2023-04-28T08:52:17.822Z,12.94
2023-04-28T08:54:49.408Z,12.92
2023-04-28T08:57:16.877Z,12.79
2023-04-28T08:59:47.068Z,12.85
2023-04-28T09:02:21.495Z,12.83
2023-04-28T09:04:54.209Z,13.01
2023-04-28T09:07:23.215Z,12.96
2023-04-28T09:09:51.295Z,12.92
2023-04-28T09:12:18.570Z,12.99
2023-04-28T09:14:45.429Z,13.03
2023-04-28T09:17:15.325Z,13.15
2023-04-28T09:19:45.887Z,13.16
2023-04-28T09:22:24.797Z,13.12
2023-04-28T09:24:56.455Z,13.12
2023-04-28T09:27:31.416Z,13.02
2023-04-28T09:30:01.303Z,12.93
2023-04-28T09:32:31.430Z,12.76
2023-04-28T09:35:00.200Z,12.64
2023-04-28T09:37:31.778Z,12.55
2023-04-28T09:40:22.707Z,12.73
2023-04-28T09:42:52.943Z,12.95
2023-04-28T09:45:23.278Z,13.23
2023-04-28T09:48:22.274Z,13.48
2023-04-28T09:50:53.331Z,13.69
2023-04-28T09:53:26.427Z,14.00
2023-04-28T09:55:57.545Z,14.11
2023-04-28T09:58:36.602Z,14.42
2023-04-28T10:01:06.200Z,14.68
2023-04-28T10:03:39.086Z,14.86
2023-04-28T10:06:10.889Z,15.00
2023-04-28T10:09:02.528Z,15.17
2023-04-28T10:11:36.651Z,15.44
2023-04-28T10:14:24.513Z,15.77
2023-04-28T10:16:56.877Z,15.85
2023-04-28T10:19:26.603Z,16.07
2023-04-28T10:22:01.670Z,16.06
2023-04-28T10:24:35.165Z,16.14
2023-04-28T10:27:10.553Z,16.17
2023-04-28T10:29:38.398Z,15.88
2023-04-28T10:32:26.759Z,15.39
2023-04-28T10:34:53.544Z,15.06
2023-04-28T10:37:23.300Z,14.92
2023-04-28T10:40:31.448Z,14.81
2023-04-28T10:42:58.700Z,14.81
2023-04-28T10:45:58.092Z,14.85
2023-04-28T10:48:34.612Z,15.24
2023-04-28T10:51:14.419Z,15.67
2023-04-28T10:53:44.700Z,16.04
2023-04-28T10:56:19.677Z,16.19
2023-04-28T10:58:51.429Z,15.98
2023-04-28T11:01:30.059Z,16.31
2023-04-28T11:04:19.451Z,16.07
2023-04-28T11:06:51.115Z,15.86
2023-04-28T11:14:55.634Z,15.06
2023-04-28T11:17:44.895Z,14.98
2023-04-28T11:20:14.128Z,14.78
2023-04-28T11:22:49.946Z,14.60
2023-04-28T11:25:17.416Z,14.67
2023-04-28T11:27:47.157Z,14.66
2023-04-28T11:30:29.352Z,14.70
2023-04-28T11:33:07.073Z,14.76
2023-04-28T11:35:44.118Z,14.83
2023-04-28T11:38:11.157Z,14.91
2023-04-28T11:40:38.022Z,15.13
2023-04-28T11:43:04.885Z,15.23
2023-04-28T11:45:32.249Z,14.97
2023-04-28T11:48:02.223Z,14.90
2023-04-28T11:51:08.384Z,14.84
2023-04-28T11:53:45.745Z,14.94
2023-04-28T11:56:14.637Z,14.84
2023-04-28T11:58:41.591Z,14.52
2023-04-28T12:01:16.207Z,14.36
2023-04-28T12:03:50.929Z,14.29
2023-04-28T12:06:19.673Z,14.27
2023-04-28T12:08:47.256Z,14.18
2023-04-28T12:11:17.219Z,14.28
2023-04-28T12:14:11.035Z,14.26
2023-04-28T12:16:47.945Z,14.05
2023-04-28T12:19:16.142Z,14.14
2023-04-28T12:21:46.216Z,14.16
2023-04-28T12:24:23.137Z,14.25
2023-04-28T12:26:50.547Z,14.11
2023-04-28T12:29:39.968Z,13.80
2023-04-28T12:32:16.773Z,13.95
2023-04-28T12:34:55.175Z,13.91
2023-04-28T12:37:23.559Z,14.08
2023-04-28T12:39:55.202Z,14.38
2023-04-28T12:42:23.890Z,14.63
2023-04-28T12:44:54.248Z,14.46
2023-04-28T12:47:31.899Z,14.32
2023-04-28T12:50:01.994Z,13.98
2023-04-28T12:52:29.078Z,13.94
2023-04-28T12:54:56.926Z,14.12
2023-04-28T12:57:26.560Z,14.35
2023-04-28T12:59:54.366Z,14.55
2023-04-28T13:04:48.849Z,14.43
2023-04-28T13:07:16.666Z,14.45
2023-04-28T13:12:48.562Z,14.04
2023-04-28T13:15:16.076Z,13.94
2023-04-28T13:17:46.613Z,13.95
2023-04-28T13:20:15.273Z,14.21
2023-04-28T13:22:43.669Z,14.56
2023-04-28T13:25:10.725Z,14.50
2023-04-28T13:27:38.548Z,14.35
2023-04-28T13:30:12.300Z,14.14
2023-04-28T13:32:40.896Z,14.32
2023-04-28T13:35:10.123Z,14.67
2023-04-28T13:37:42.912Z,14.92
2023-04-28T13:40:10.550Z,14.68
2023-04-28T13:42:46.145Z,14.38
2023-04-28T13:45:22.869Z,14.21
2023-04-28T13:47:54.912Z,14.19
2023-04-28T13:50:22.769Z,14.21
2023-04-28T13:52:49.902Z,14.29
2023-04-28T13:55:27.972Z,14.37
2023-04-28T13:57:55.815Z,14.21
2023-04-28T14:00:26.267Z,14.27
2023-04-28T14:02:58.773Z,14.28
2023-04-28T14:05:29.763Z,14.40
2023-04-28T14:07:58.523Z,14.40
2023-04-28T14:10:27.054Z,14.23
2023-04-28T14:12:54.184Z,14.08
2023-04-28T14:15:22.171Z,14.06
2023-04-28T14:17:49.108Z,14.04
2023-04-28T14:20:18.300Z,14.07
2023-04-28T14:22:45.149Z,14.15
2023-04-28T14:25:12.122Z,14.08
2023-04-28T14:27:38.944Z,14.08
2023-04-28T14:30:06.817Z,14.15
2023-04-28T14:32:34.225Z,14.17
2023-04-28T14:35:03.361Z,13.88
2023-04-28T14:37:30.448Z,13.77
2023-04-28T14:39:57.508Z,13.65
2023-04-28T14:42:40.597Z,13.39
2023-04-28T14:45:09.228Z,13.41
2023-04-28T14:47:40.668Z,13.47
2023-04-28T14:50:09.099Z,13.44
2023-04-28T14:52:36.338Z,13.33
2023-04-28T14:55:05.821Z,13.31
2023-04-28T14:57:45.818Z,13.20
2023-04-28T15:00:13.767Z,13.05
2023-04-28T15:02:41.295Z,13.04
2023-04-28T15:05:09.003Z,13.12
2023-04-28T15:07:36.655Z,13.07
2023-04-28T15:10:09.970Z,12.99
2023-04-28T15:12:37.262Z,13.12
2023-04-28T15:15:04.427Z,13.25
2023-04-28T15:17:31.252Z,13.32
2023-04-28T15:20:02.646Z,13.45
2023-04-28T15:22:34.824Z,13.48
2023-04-28T15:25:02.680Z,13.47
2023-04-28T15:27:38.765Z,13.43
2023-04-28T15:30:10.894Z,13.42
2023-04-28T15:32:38.310Z,13.32
2023-04-28T15:38:22.447Z,13.54
2023-04-28T15:40:56.531Z,13.60
2023-04-28T15:43:32.771Z,13.71
2023-04-28T15:46:01.455Z,13.75
2023-04-28T15:48:33.344Z,13.67
2023-04-28T15:51:00.259Z,13.61
2023-04-28T15:53:27.951Z,13.52
2023-04-28T15:55:57.461Z,13.33
2023-04-28T15:58:24.742Z,13.19
2023-04-28T16:00:52.402Z,13.07
2023-04-28T16:03:19.954Z,12.95
2023-04-28T16:05:53.599Z,12.94
2023-04-28T16:08:24.896Z,12.79
2023-04-28T16:11:06.047Z,12.64
2023-04-28T16:13:37.017Z,12.58
2023-04-28T16:16:09.805Z,12.51
2023-04-28T16:18:39.870Z,12.42
2023-04-28T16:21:12.622Z,12.31
2023-04-28T16:23:45.215Z,12.17
2023-04-28T16:26:15.505Z,12.12
2023-04-28T16:28:42.537Z,12.02
2023-04-28T16:31:12.989Z,11.94
2023-04-28T16:36:43.052Z,11.73
2023-04-28T16:39:16.059Z,11.60
2023-04-28T16:41:43.804Z,11.53
2023-04-28T16:44:20.167Z,11.45
2023-04-28T16:46:56.222Z,11.44
2023-04-28T16:52:17.388Z,11.29
2023-04-28T16:54:49.606Z,11.24
2023-04-28T16:57:16.713Z,11.18
2023-04-28T16:59:43.897Z,11.15
2023-04-28T17:02:16.413Z,11.15
2023-04-28T17:04:55.121Z,11.10
2023-04-28T17:08:02.292Z,11.01
2023-04-28T17:10:43.386Z,10.91
2023-04-28T17:13:10.345Z,10.85
2023-04-28T17:15:41.611Z,10.78
2023-04-28T17:18:08.730Z,10.69
2023-04-28T17:20:42.826Z,10.55
2023-04-28T17:23:09.899Z,10.34
2023-04-28T17:25:39.307Z,10.29
2023-04-28T17:28:07.088Z,10.19
2023-04-28T17:30:38.636Z,10.04
2023-04-28T17:33:06.049Z,9.90
2023-04-28T17:35:33.664Z,9.82
2023-04-28T17:38:00.436Z,9.69
2023-04-28T17:40:28.016Z,9.58
2023-04-28T17:42:55.377Z,9.47
2023-04-28T17:45:26.122Z,9.38
2023-04-28T17:47:53.430Z,9.27
2023-04-28T17:50:20.955Z,9.18
2023-04-28T17:52:56.491Z,9.05
2023-04-28T17:58:39.791Z,8.80
2023-04-28T18:01:38.572Z,8.65
2023-04-28T18:04:09.286Z,8.52
2023-04-28T18:06:42.997Z,8.36
2023-04-28T18:09:44.143Z,8.27
2023-04-28T18:12:32.996Z,8.15
2023-04-28T18:15:06.530Z,8.03
2023-04-28T18:17:48.301Z,7.93
2023-04-28T18:20:50.141Z,7.89
2023-04-28T18:27:24.793Z,7.53
2023-04-28T18:30:26.071Z,7.45
2023-04-28T18:32:58.159Z,7.29
2023-04-28T18:35:37.403Z,7.28
2023-04-28T18:41:27.630Z,6.95
2023-04-28T18:46:57.537Z,6.72
2023-04-28T18:52:25.863Z,6.61
2023-04-28T18:55:26.518Z,6.52
2023-04-28T18:58:03.129Z,6.43
2023-04-28T19:01:24.179Z,6.43
2023-04-28T19:04:09.172Z,6.28
2023-04-28T19:13:12.262Z,6.12
2023-04-28T19:15:55.107Z,6.04
2023-04-28T19:18:29.497Z,5.89
2023-04-28T19:21:41.951Z,5.74
2023-04-28T19:25:56.302Z,5.68
2023-04-28T19:28:00.840Z,5.60
2023-04-28T19:30:37.965Z,5.58
2023-04-28T19:33:05.581Z,5.51
2023-04-28T19:44:26.981Z,5.29
2023-04-28T19:47:23.203Z,5.23
2023-04-28T19:50:20.199Z,5.23
2023-04-28T19:52:52.698Z,5.19
2023-04-28T19:55:53.705Z,5.18
2023-04-28T19:58:45.248Z,5.08
2023-04-28T20:01:22.528Z,5.04
2023-04-28T20:03:50.044Z,4.92
2023-04-28T20:06:21.292Z,4.93
2023-04-28T20:09:01.470Z,4.95
2023-04-28T20:11:29.865Z,4.88
2023-04-28T20:14:24.255Z,4.83
2023-04-28T20:16:50.955Z,4.75
2023-04-28T20:19:19.833Z,4.69
2023-04-28T20:21:47.149Z,4.71
2023-04-28T20:24:20.875Z,4.66
2023-04-28T20:26:54.724Z,4.55
2023-04-28T20:29:25.751Z,4.52
2023-04-28T20:31:55.178Z,4.53
2023-04-28T20:34:31.690Z,4.51
2023-04-28T20:37:09.289Z,4.45
2023-04-28T20:39:39.285Z,4.29
2023-04-28T20:42:11.202Z,4.16
2023-04-28T20:44:49.327Z,4.14
2023-04-28T20:47:16.927Z,4.14
2023-04-28T20:49:44.613Z,4.02
2023-04-28T20:52:14.625Z,3.95
2023-04-28T20:54:46.473Z,3.97
2023-04-28T20:57:27.951Z,3.95
2023-04-28T20:59:58.904Z,3.81
2023-04-28T21:02:32.235Z,3.77
2023-04-28T21:05:02.862Z,3.77
2023-04-28T21:07:34.490Z,3.70
2023-04-28T21:10:05.524Z,3.65
2023-04-28T21:12:32.981Z,3.68
2023-04-28T21:15:03.932Z,3.71
2023-04-28T21:17:31.889Z,3.65
2023-04-28T21:19:59.374Z,3.59
2023-04-28T21:22:28.210Z,3.60
2023-04-28T21:27:39.685Z,3.58
2023-04-28T21:30:08.337Z,3.54
2023-04-28T21:32:39.561Z,3.53
2023-04-28T21:35:08.099Z,3.48
2023-04-28T21:37:36.015Z,3.46
2023-04-28T21:40:03.898Z,3.36
2023-04-28T21:42:32.226Z,3.25
2023-04-28T21:45:02.031Z,3.18
2023-04-28T21:47:30.054Z,3.12
2023-04-28T21:49:57.422Z,3.08
2023-04-28T21:52:24.681Z,3.07
2023-04-28T21:54:51.872Z,3.03
2023-04-28T21:57:19.375Z,3.02
2023-04-28T21:59:46.607Z,3.02
2023-04-28T22:02:14.612Z,3.01
2023-04-28T22:04:42.059Z,2.99
2023-04-28T22:07:09.071Z,2.91
2023-04-28T22:09:36.912Z,2.96
2023-04-28T22:12:04.509Z,2.99
2023-04-28T22:17:03.738Z,2.90
2023-04-28T22:19:30.831Z,2.85
2023-04-28T22:22:00.284Z,2.77
2023-04-28T22:24:27.996Z,2.70
2023-04-28T22:26:55.269Z,2.75
2023-04-28T22:29:22.579Z,2.77
2023-04-28T22:31:49.794Z,2.64
2023-04-28T22:34:17.108Z,2.60
2023-04-28T22:36:45.323Z,2.57
2023-04-28T22:39:12.656Z,2.56
2023-04-28T22:41:47.093Z,2.55
2023-04-28T22:44:14.517Z,2.53
2023-04-28T22:46:41.706Z,2.49
2023-04-28T22:49:08.963Z,2.48
2023-04-28T22:51:37.100Z,2.42
2023-04-28T22:54:04.518Z,2.43
2023-04-28T22:56:31.586Z,2.37
2023-04-28T22:58:59.030Z,2.32
2023-04-28T23:01:26.265Z,2.29
2023-04-28T23:03:53.622Z,2.22
2023-04-28T23:06:20.722Z,2.18
2023-04-28T23:08:48.965Z,2.18
2023-04-28T23:11:19.166Z,2.18
2023-04-28T23:13:46.616Z,2.13
2023-04-28T23:16:13.730Z,2.10
2023-04-28T23:18:40.943Z,2.09
2023-04-28T23:21:08.385Z,2.02
2023-04-28T23:23:39.358Z,1.99
2023-04-28T23:26:09.946Z,2.00
2023-04-28T23:28:39.445Z,1.97
2023-04-28T23:31:06.525Z,1.94
2023-04-28T23:33:34.641Z,1.84
2023-04-28T23:36:01.906Z,1.78
2023-04-28T23:38:29.169Z,1.74
2023-04-28T23:40:59.190Z,1.75
2023-04-28T23:43:26.402Z,1.76
2023-04-28T23:45:55.285Z,1.79
2023-04-28T23:48:22.805Z,1.82
2023-04-28T23:50:50.791Z,1.77
2023-04-28T23:53:18.071Z,1.73
2023-04-28T23:55:45.299Z,1.65
2023-04-28T23:58:12.788Z,1.62
